createdAt,value
2019-01-04T00:00:07.175Z,98497.08
2019-01-04T00:03:03.814Z,98495.36
2019-01-04T00:06:00.503Z,98494.36
2019-01-04T00:08:57.371Z,98486.14
2019-01-04T00:11:55.009Z,98487.75
2019-01-04T00:14:51.424Z,98492.00
2019-01-04T00:17:47.259Z,98492.73
2019-01-04T00:20:44.971Z,98493.87
2019-01-04T00:23:41.555Z,98488.66
2019-01-04T00:26:37.068Z,98494.65
2019-01-04T00:29:34.037Z,98496.27
2019-01-04T00:32:30.223Z,98496.14
2019-01-04T00:35:26.736Z,98506.83
2019-01-04T00:38:21.692Z,98510.09
2019-01-04T00:41:18.447Z,98505.34
2019-01-04T00:44:15.077Z,98503.61
2019-01-04T00:47:11.717Z,98494.50
2019-01-04T00:50:08.354Z,98491.66
2019-01-04T00:53:06.154Z,98492.77
2019-01-04T00:56:29.256Z,98494.64
2019-01-04T00:59:49.979Z,98494.41
2019-01-04T01:03:09.468Z,98503.00
2019-01-04T01:06:44.686Z,98504.61
2019-01-04T01:10:09.739Z,98494.66
2019-01-04T01:13:50.395Z,98496.41
2019-01-04T01:17:19.501Z,98500.61
2019-01-04T01:20:41.511Z,98500.36
2019-01-04T01:24:18.713Z,98496.38
2019-01-04T01:27:39.996Z,98499.09
2019-01-04T01:31:05.998Z,98503.84
2019-01-04T01:34:26.503Z,98509.59
2019-01-04T01:38:02.908Z,98511.56
2019-01-04T01:41:35.628Z,98510.81
2019-01-04T01:44:56.465Z,98520.31
2019-01-04T01:48:19.278Z,98525.02
2019-01-04T01:51:47.462Z,98516.59
2019-01-04T01:54:43.969Z,98514.10
2019-01-04T01:57:41.952Z,98503.38
2019-01-04T02:00:38.637Z,98512.58
2019-01-04T02:03:35.287Z,98511.08
2019-01-04T02:06:31.825Z,98516.83
2019-01-04T02:09:27.339Z,98520.19
2019-01-04T02:12:24.999Z,98528.27
2019-01-04T02:15:21.833Z,98526.39
2019-01-04T02:18:18.459Z,98529.53
2019-01-04T02:21:14.077Z,98529.53
2019-01-04T02:24:10.849Z,98527.29
2019-01-04T02:27:07.703Z,98525.05
2019-01-04T02:30:03.323Z,98521.33
2019-01-04T02:33:00.924Z,98516.34
2019-01-04T02:35:56.591Z,98517.84
2019-01-04T02:38:53.552Z,98519.09
2019-01-04T02:41:49.376Z,98518.82
2019-01-04T02:44:45.311Z,98521.58
2019-01-04T02:47:41.069Z,98522.31
2019-01-04T02:50:37.664Z,98516.34
2019-01-04T02:53:35.298Z,98511.36
2019-01-04T02:56:30.782Z,98505.42
2019-01-04T02:59:27.466Z,98515.37
2019-01-04T03:02:22.981Z,98503.42
2019-01-04T03:05:19.915Z,98500.18
2019-01-04T03:08:17.506Z,98499.94
2019-01-04T03:11:13.259Z,98497.56
2019-01-04T03:14:12.109Z,98508.39
2019-01-04T03:17:08.741Z,98505.67
2019-01-04T03:20:05.389Z,98506.41
2019-01-04T03:23:00.907Z,98503.91
2019-01-04T03:25:57.648Z,98498.45
2019-01-04T03:28:54.389Z,98497.21
2019-01-04T03:31:49.964Z,98499.43
2019-01-04T03:34:46.799Z,98502.16
2019-01-04T03:37:42.798Z,98504.78
2019-01-04T03:40:39.465Z,98504.17
2019-01-04T03:43:36.210Z,98497.19
2019-01-04T03:46:33.865Z,98502.44
2019-01-04T03:49:29.765Z,98493.98
2019-01-04T03:52:26.222Z,98492.22
2019-01-04T03:55:22.258Z,98490.49
2019-01-04T03:58:19.581Z,98492.22
2019-01-04T04:01:16.138Z,98489.24
2019-01-04T04:04:12.719Z,98487.52
2019-01-04T04:07:09.298Z,98492.49
2019-01-04T04:10:05.045Z,98494.45
2019-01-04T04:13:02.620Z,98485.50
2019-01-04T04:15:59.097Z,98488.98
2019-01-04T04:18:55.763Z,98494.84
2019-01-04T04:21:52.400Z,98493.23
2019-01-04T04:24:49.384Z,98496.69
2019-01-04T04:27:45.410Z,98501.66
2019-01-04T04:30:41.028Z,98497.45
2019-01-04T04:33:37.803Z,98501.31
2019-01-04T04:36:33.358Z,98511.14
2019-01-04T04:39:30.131Z,98495.09
2019-01-04T04:42:25.647Z,98504.65
2019-01-04T04:45:23.418Z,98505.89
2019-01-04T04:48:19.961Z,98508.38
2019-01-04T04:51:14.683Z,98510.62
2019-01-04T04:54:12.501Z,98508.89
2019-01-04T04:57:08.037Z,98506.17
2019-01-04T05:00:04.537Z,98510.14
2019-01-04T05:03:01.411Z,98505.91
2019-01-04T05:05:59.486Z,98504.91
2019-01-04T05:08:54.992Z,98511.12
2019-01-04T05:11:51.312Z,98504.18
2019-01-04T05:14:51.034Z,98507.39
2019-01-04T05:17:46.814Z,98512.13
2019-01-04T05:20:44.710Z,98511.64
2019-01-04T05:23:41.388Z,98517.86
2019-01-04T05:26:39.218Z,98513.13
2019-01-04T05:29:34.868Z,98509.88
2019-01-04T05:32:31.638Z,98502.54
2019-01-04T05:35:28.144Z,98498.44
2019-01-04T05:38:24.899Z,98503.42
2019-01-04T05:41:21.491Z,98501.45
2019-01-04T05:44:18.041Z,98502.69
2019-01-04T05:47:14.679Z,98505.18
2019-01-04T05:50:10.477Z,98497.72
2019-01-04T05:53:06.985Z,98501.69
2019-01-04T05:56:09.464Z,98496.72
2019-01-04T05:59:05.224Z,98498.44
2019-01-04T06:02:01.913Z,98494.47
2019-01-04T06:04:57.379Z,98491.50
2019-01-04T06:07:54.015Z,98496.72
2019-01-04T06:10:49.360Z,98492.74
2019-01-04T06:13:47.198Z,98497.95
2019-01-04T06:16:44.966Z,98502.17
2019-01-04T06:19:40.538Z,98505.42
2019-01-04T06:22:38.213Z,98499.80
2019-01-04T06:25:34.782Z,98508.14
2019-01-04T06:28:31.644Z,98505.41
2019-01-04T06:31:27.002Z,98507.53
2019-01-04T06:34:23.788Z,98501.44
2019-01-04T06:37:20.432Z,98511.14
2019-01-04T06:40:16.626Z,98515.35
2019-01-04T06:43:12.396Z,98511.14
2019-01-04T06:46:10.388Z,98512.86
2019-01-04T06:49:06.869Z,98520.45
2019-01-04T06:52:02.540Z,98523.57
2019-01-04T06:55:52.947Z,98523.44
2019-01-04T06:58:48.981Z,98531.03
2019-01-04T07:01:45.888Z,98536.00
2019-01-04T07:04:41.663Z,98536.00
2019-01-04T07:07:38.316Z,98531.77
2019-01-04T07:10:33.992Z,98533.13
2019-01-04T07:13:31.892Z,98534.50
2019-01-04T07:16:28.493Z,98534.77
2019-01-04T07:19:24.173Z,98534.77
2019-01-04T07:22:20.811Z,98536.25
2019-01-04T07:25:16.790Z,98540.98
2019-01-04T07:28:13.636Z,98544.95
2019-01-04T07:31:20.531Z,98546.19
2019-01-04T07:34:18.197Z,98546.70
2019-01-04T07:37:14.594Z,98552.41
2019-01-04T07:40:10.189Z,98554.89
2019-01-04T07:43:06.551Z,98559.14
2019-01-04T07:46:01.705Z,98555.89
2019-01-04T07:48:58.096Z,98554.63
2019-01-04T07:51:55.033Z,98558.39
2019-01-04T07:54:49.901Z,98561.88
2019-01-04T07:57:47.746Z,98565.33
2019-01-04T08:00:43.378Z,98561.34
2019-01-04T08:03:49.038Z,98553.14
2019-01-04T08:06:44.378Z,98558.36
2019-01-04T08:09:40.988Z,98562.58
2019-01-04T08:12:36.682Z,98561.08
2019-01-04T08:15:34.715Z,98561.34
2019-01-04T08:18:32.374Z,98563.59
2019-01-04T08:21:27.947Z,98556.59
2019-01-04T08:24:25.593Z,98564.30
2019-01-04T08:27:21.433Z,98564.57
2019-01-04T08:30:17.268Z,98573.00
2019-01-04T08:33:13.496Z,98569.02
2019-01-04T08:36:09.999Z,98566.79
2019-01-04T08:39:06.643Z,98578.71
2019-01-04T08:42:04.392Z,98580.47
2019-01-04T08:45:00.976Z,98578.71
2019-01-04T08:47:57.618Z,98582.20
2019-01-04T08:50:54.483Z,98582.31
2019-01-04T08:54:10.538Z,98587.16
2019-01-04T08:57:07.463Z,98583.17
2019-01-04T09:00:04.303Z,98589.16
2019-01-04T09:03:00.780Z,98592.27
2019-01-04T09:05:57.434Z,98596.38
2019-01-04T09:08:53.795Z,98603.97
2019-01-04T09:11:49.957Z,98610.59
2019-01-04T09:14:45.770Z,98614.34
2019-01-04T09:17:42.560Z,98618.30
2019-01-04T09:20:38.126Z,98621.39
2019-01-04T09:23:35.026Z,98626.89
2019-01-04T09:26:31.664Z,98627.23
2019-01-04T09:29:29.426Z,98631.23
2019-01-04T09:32:27.057Z,98625.73
2019-01-04T09:35:22.873Z,98617.00
2019-01-04T09:38:19.047Z,98619.22
2019-01-04T09:41:56.576Z,98610.98
2019-01-04T09:44:53.407Z,98604.02
2019-01-04T09:47:48.835Z,98605.97
2019-01-04T09:50:45.612Z,98596.73
2019-01-04T09:53:42.429Z,98600.47
2019-01-04T09:56:37.997Z,98595.48
2019-01-04T09:59:35.901Z,98591.97
2019-01-04T10:02:33.895Z,98583.76
2019-01-04T10:05:30.593Z,98585.88
2019-01-04T10:08:25.308Z,98585.00
2019-01-04T10:11:21.273Z,98578.41
2019-01-04T10:14:17.131Z,98570.30
2019-01-04T10:17:13.773Z,98556.58
2019-01-04T10:20:11.352Z,98542.65
2019-01-04T10:23:07.578Z,98545.39
2019-01-04T10:26:03.103Z,98547.34
2019-01-04T10:28:59.331Z,98539.35
2019-01-04T10:31:57.234Z,98538.55
2019-01-04T10:34:53.175Z,98538.25
2019-01-04T10:37:49.721Z,98526.00
2019-01-04T10:40:46.196Z,98524.28
2019-01-04T10:43:42.737Z,98517.27
2019-01-04T10:46:38.408Z,98518.26
2019-01-04T10:49:35.997Z,98510.52
2019-01-04T10:52:31.546Z,98515.50
2019-01-04T10:55:27.969Z,98509.53
2019-01-04T10:58:23.188Z,98509.64
2019-01-04T11:01:21.080Z,98501.83
2019-01-04T11:04:17.917Z,98499.33
2019-01-04T11:07:13.857Z,98498.34
2019-01-04T11:10:10.546Z,98492.84
2019-01-04T11:13:07.491Z,98483.59
2019-01-04T11:16:04.291Z,98480.15
2019-01-04T11:18:59.749Z,98483.38
2019-01-04T11:21:56.980Z,98481.88
2019-01-04T11:25:20.697Z,98484.37
2019-01-04T11:28:37.677Z,98479.16
2019-01-04T11:32:08.472Z,98474.91
2019-01-04T11:35:32.623Z,98468.41
2019-01-04T11:38:56.133Z,98466.13
2019-01-04T11:42:22.178Z,98463.12
2019-01-04T11:45:56.076Z,98465.83
2019-01-04T11:49:16.577Z,98467.52
2019-01-04T11:52:20.361Z,98450.65
2019-01-04T11:55:17.143Z,98456.63
2019-01-04T11:58:13.720Z,98444.41
2019-01-04T12:01:10.521Z,98437.55
2019-01-04T12:04:15.630Z,98439.16
2019-01-04T12:07:11.323Z,98442.64
2019-01-04T12:10:07.925Z,98438.64
2019-01-04T12:13:03.834Z,98434.62
2019-01-04T12:16:00.562Z,98428.13
2019-01-04T12:18:55.180Z,98427.62
2019-01-04T12:21:52.614Z,98420.65
2019-01-04T12:24:49.284Z,98423.98
2019-01-04T12:27:44.939Z,98412.12
2019-01-04T12:30:42.350Z,98415.34
2019-01-04T12:33:39.213Z,98408.59
2019-01-04T12:36:36.696Z,98405.63
2019-01-04T12:39:32.369Z,98394.66
2019-01-04T12:42:29.328Z,98391.80
2019-01-04T12:45:22.482Z,98401.11
2019-01-04T12:48:19.242Z,98403.71
2019-01-04T12:51:16.961Z,98402.73
2019-01-04T12:54:12.708Z,98405.36
2019-01-04T12:57:09.605Z,98400.37
2019-01-04T13:00:05.432Z,98393.09
2019-01-04T13:03:02.024Z,98386.59
2019-01-04T13:05:57.921Z,98389.45
2019-01-04T13:08:54.564Z,98374.86
2019-01-04T13:11:51.173Z,98374.86
2019-01-04T13:14:47.789Z,98376.00
2019-01-04T13:17:44.537Z,98376.10
2019-01-04T13:20:39.632Z,98374.86
2019-01-04T13:23:36.258Z,98373.66
2019-01-04T13:26:31.678Z,98362.70
2019-01-04T13:29:28.402Z,98365.86
2019-01-04T13:32:25.139Z,98364.21
2019-01-04T13:35:22.799Z,98356.73
2019-01-04T13:38:20.103Z,98353.76
2019-01-04T13:41:16.210Z,98345.82
2019-01-04T13:44:13.115Z,98345.82
2019-01-04T13:47:08.792Z,98331.42
2019-01-04T13:50:04.649Z,98318.44
2019-01-04T13:53:00.335Z,98316.92
2019-01-04T13:55:57.546Z,98302.73
2019-01-04T13:58:54.362Z,98310.95
2019-01-04T14:01:50.991Z,98304.24
2019-01-04T14:04:47.911Z,98301.24
2019-01-04T14:07:44.659Z,98299.52
2019-01-04T14:10:40.499Z,98298.27
2019-01-04T14:13:37.771Z,98313.98
2019-01-04T14:16:33.622Z,98315.02
2019-01-04T14:19:29.450Z,98321.25
2019-01-04T14:22:27.000Z,98329.24
2019-01-04T14:25:22.469Z,98328.00
2019-01-04T14:28:19.064Z,98319.53
2019-01-04T14:31:14.688Z,98314.03
2019-01-04T14:34:12.187Z,98311.81
2019-01-04T14:37:10.099Z,98297.62
2019-01-04T14:40:05.564Z,98292.63
2019-01-04T14:43:02.718Z,98296.84
2019-01-04T14:45:58.371Z,98287.64
2019-01-04T14:48:54.957Z,98280.16
2019-01-04T14:51:50.575Z,98279.28
2019-01-04T14:54:47.404Z,98285.14
2019-01-04T14:57:43.236Z,98281.67
2019-01-04T15:00:40.810Z,98278.70
2019-01-04T15:03:36.509Z,98275.59
2019-01-04T15:06:32.664Z,98271.25
2019-01-04T15:09:29.458Z,98269.63
2019-01-04T15:12:25.251Z,98265.52
2019-01-04T15:15:21.765Z,98257.53
2019-01-04T15:18:17.904Z,98255.34
2019-01-04T15:21:14.746Z,98262.81
2019-01-04T15:24:11.328Z,98254.35
2019-01-04T15:27:07.191Z,98246.88
2019-01-04T15:30:03.364Z,98241.11
2019-01-04T15:32:59.127Z,98233.42
2019-01-04T15:35:55.970Z,98232.45
2019-01-04T15:38:52.854Z,98231.20
2019-01-04T15:41:50.538Z,98229.84
2019-01-04T15:44:47.152Z,98226.48
2019-01-04T15:47:43.679Z,98220.72
2019-01-04T15:50:40.309Z,98211.52
2019-01-04T15:53:37.051Z,98212.50
2019-01-04T15:56:33.678Z,98224.97
2019-01-04T15:59:29.280Z,98219.77
2019-01-04T16:02:28.412Z,98232.23
2019-01-04T16:05:25.275Z,98233.75
2019-01-04T16:08:21.796Z,98237.22
2019-01-04T16:11:17.223Z,98238.95
2019-01-04T16:14:15.141Z,98244.91
2019-01-04T16:17:12.264Z,98257.75
2019-01-04T16:20:06.942Z,98239.92
2019-01-04T16:23:03.372Z,98238.17
2019-01-04T16:25:59.254Z,98242.31
2019-01-04T16:28:56.064Z,98245.65
2019-01-04T16:31:52.068Z,98249.69
2019-01-04T16:34:51.277Z,98246.05
2019-01-04T16:37:46.695Z,98248.55
2019-01-04T16:40:45.045Z,98254.38
2019-01-04T16:43:41.318Z,98232.71
2019-01-04T16:46:37.093Z,98232.71
2019-01-04T16:49:33.537Z,98233.95
2019-01-04T16:52:29.465Z,98233.95
2019-01-04T16:55:27.390Z,98234.44
2019-01-04T16:58:23.213Z,98226.95
2019-01-04T17:01:19.984Z,98230.22
2019-01-04T17:04:16.620Z,98237.97
2019-01-04T17:07:13.262Z,98246.22
2019-01-04T17:10:09.860Z,98246.22
2019-01-04T17:13:05.409Z,98241.97
2019-01-04T17:16:03.031Z,98234.48
2019-01-04T17:18:58.742Z,98231.25
2019-01-04T17:21:55.980Z,98230.85
2019-01-04T17:24:51.678Z,98236.24
2019-01-04T17:27:48.238Z,98239.72
2019-01-04T17:30:44.965Z,98236.34
2019-01-04T17:33:39.660Z,98244.80
2019-01-04T17:36:37.592Z,98240.66
2019-01-04T17:39:33.561Z,98227.45
2019-01-04T17:42:31.090Z,98229.95
2019-01-04T17:45:27.015Z,98221.23
2019-01-04T17:48:25.502Z,98210.00
2019-01-04T17:51:21.290Z,98193.30
2019-01-04T17:54:17.921Z,98180.09
2019-01-04T17:57:14.679Z,98183.32
2019-01-04T18:00:10.762Z,98170.11
2019-01-04T18:03:07.762Z,98167.99
2019-01-04T18:06:04.394Z,98173.34
2019-01-04T18:09:01.253Z,98171.36
2019-01-04T18:11:58.018Z,98160.88
2019-01-04T18:14:54.587Z,98155.16
2019-01-04T18:17:51.258Z,98152.66
2019-01-04T18:20:48.555Z,98151.89
2019-01-04T18:23:45.963Z,98148.66
2019-01-04T18:26:42.626Z,98144.64
2019-01-04T18:29:39.695Z,98131.41
2019-01-04T18:32:34.933Z,98134.00
2019-01-04T18:35:32.748Z,98129.89
2019-01-04T18:38:29.546Z,98133.36
2019-01-04T18:41:25.063Z,98138.81
2019-01-04T18:44:22.780Z,98143.53
2019-01-04T18:47:19.426Z,98149.77
2019-01-04T18:50:16.353Z,98147.78
2019-01-04T18:53:13.228Z,98142.79
2019-01-04T18:56:11.028Z,98142.79
2019-01-04T18:59:07.835Z,98144.51
2019-01-04T19:02:03.493Z,98142.02
2019-01-04T19:05:00.027Z,98142.02
2019-01-04T19:07:56.848Z,98144.78
2019-01-04T19:10:52.769Z,98150.14
2019-01-04T19:13:49.561Z,98160.01
2019-01-04T19:16:45.234Z,98155.02
2019-01-04T19:19:41.262Z,98162.50
2019-01-04T19:22:37.962Z,98157.52
2019-01-04T19:25:35.736Z,98155.80
2019-01-04T19:28:32.393Z,98166.24
2019-01-04T19:31:32.983Z,98158.30
2019-01-04T19:34:31.830Z,98164.25
2019-01-04T19:37:28.889Z,98159.00
2019-01-04T19:40:25.629Z,98153.70
2019-01-04T19:43:21.257Z,98148.95
2019-01-04T19:46:17.723Z,98140.80
2019-01-04T19:49:14.445Z,98136.31
2019-01-04T19:52:10.128Z,98141.87
2019-01-04T19:55:07.108Z,98145.14
2019-01-04T19:58:02.932Z,98137.94
2019-01-04T20:00:59.889Z,98142.66
2019-01-04T20:03:55.365Z,98143.63
2019-01-04T20:07:58.873Z,98143.90
2019-01-04T20:11:40.594Z,98146.86
2019-01-04T20:15:16.534Z,98141.13
2019-01-04T20:18:33.268Z,98141.41
2019-01-04T20:21:48.983Z,98144.77
2019-01-04T20:25:03.383Z,98148.11
2019-01-04T20:28:13.539Z,98146.86
2019-01-04T20:31:38.151Z,98136.69
2019-01-04T20:34:48.012Z,98136.69
2019-01-04T20:37:57.844Z,98135.17
2019-01-04T20:41:05.857Z,98140.26
2019-01-04T20:44:20.349Z,98139.11
2019-01-04T20:47:43.418Z,98147.84
2019-01-04T20:51:05.834Z,98145.85
2019-01-04T20:54:29.145Z,98149.59
2019-01-04T20:57:36.339Z,98143.83
2019-01-04T21:00:54.131Z,98138.37
2019-01-04T21:04:14.101Z,98128.39
2019-01-04T21:07:20.642Z,98142.58
2019-01-04T21:10:46.281Z,98133.85
2019-01-04T21:13:55.230Z,98133.85
2019-01-04T21:17:12.508Z,98130.61
2019-01-04T21:20:23.906Z,98133.85
2019-01-04T21:23:45.725Z,98127.61
2019-01-04T21:26:54.662Z,98133.11
2019-01-04T21:30:17.848Z,98136.34
2019-01-04T21:33:26.573Z,98131.36
2019-01-04T21:36:52.265Z,98136.24
2019-01-04T21:39:59.818Z,98135.37
2019-01-04T21:43:10.466Z,98140.36
2019-01-04T21:46:35.644Z,98136.14
2019-01-04T21:49:56.523Z,98136.14
2019-01-04T21:53:04.254Z,98138.64
2019-01-04T21:56:30.489Z,98138.44
2019-01-04T21:59:41.056Z,98134.39
2019-01-04T22:02:40.702Z,98129.20
2019-01-04T22:05:54.336Z,98135.95
2019-01-04T22:09:21.420Z,98125.09
2019-01-04T22:12:39.463Z,98124.22
2019-01-04T22:15:52.853Z,98115.99
2019-01-04T22:19:05.197Z,98125.97
2019-01-04T22:22:18.110Z,98121.82
2019-01-04T22:25:27.828Z,98118.18
2019-01-04T22:28:36.508Z,98110.70
2019-01-04T22:31:51.906Z,98111.67
2019-01-04T22:34:59.341Z,98114.67
2019-01-04T22:38:25.140Z,98111.40
2019-01-04T22:42:01.062Z,98102.20
2019-01-04T22:45:10.104Z,98100.95
2019-01-04T22:48:23.273Z,98102.67
2019-01-04T22:51:42.583Z,98095.69
2019-01-04T22:54:53.139Z,98100.68
2019-01-04T22:58:13.748Z,98094.44
2019-01-04T23:01:28.345Z,98105.67
2019-01-04T23:04:37.537Z,98099.03
2019-01-04T23:07:54.458Z,98098.19
2019-01-04T23:11:04.612Z,98093.94
2019-01-04T23:14:13.260Z,98092.42
2019-01-04T23:17:22.543Z,98093.30
2019-01-04T23:20:48.606Z,98081.97
2019-01-04T23:23:57.614Z,98086.56
2019-01-04T23:27:07.497Z,98084.94
2019-01-04T23:30:17.355Z,98077.92
2019-01-04T23:33:32.424Z,98088.50
2019-01-04T23:36:52.401Z,98087.36
2019-01-04T23:40:19.657Z,98091.09
2019-01-04T23:43:27.568Z,98095.34
2019-01-04T23:46:35.543Z,98078.63
2019-01-04T23:49:47.555Z,98086.11
2019-01-04T23:52:58.237Z,98075.66
2019-01-04T23:56:18.797Z,98075.76
2019-01-04T23:59:27.957Z,98069.89
